Time;durP1;ratioP1;P1;durP2;ratioP2;P2;SDS_P1;SDS_P2;PMS_P1;PMS_P2;Temp;Humidity;BMP_temperature;BMP_pressure;BME280_temperature;BME280_humidity;BME280_pressure;Samples;Min_cycle;Max_cycle;Signal;HPM_P1;HPM_P2
2023/05/08 00:01:46;;;;;;;2.70;2.50;;;13.90;99.90;;;;;;512849;232;28761;-79
2023/05/08 00:03:48;;;;;;;5.87;2.50;;;13.80;99.90;;;;;;512816;232;28464;-79
2023/05/08 00:05:49;;;;;;;6.07;2.70;;;13.80;99.90;;;;;;512704;232;28733;-79
2023/05/08 00:07:52;;;;;;;3.00;2.80;;;13.80;99.90;;;;;;512612;232;28645;-79
2023/05/08 00:09:52;;;;;;;3.23;2.93;;;13.80;99.90;;;;;;512724;232;29801;-79
2023/05/08 00:11:53;;;;;;;3.37;2.57;;;13.70;99.90;;;;;;512842;232;29310;-80
2023/05/08 00:13:54;;;;;;;5.53;3.20;;;13.70;99.90;;;;;;512861;232;28838;-80
2023/05/08 00:15:56;;;;;;;4.13;3.30;;;13.70;99.90;;;;;;512866;232;28393;-79
2023/05/08 00:17:57;;;;;;;3.40;3.10;;;13.70;99.90;;;;;;512905;232;28467;-79
2023/05/08 00:19:58;;;;;;;2.70;2.53;;;13.70;99.90;;;;;;512896;232;28781;-79
2023/05/08 00:22:06;;;;;;;2.93;2.73;;;13.70;99.90;;;;;;512919;232;28886;-80
2023/05/08 00:24:07;;;;;;;3.10;2.90;;;13.70;99.90;;;;;;512958;232;28821;-80
2023/05/08 00:26:11;;;;;;;2.90;2.70;;;13.70;99.90;;;;;;512934;232;28470;-80
2023/05/08 00:28:12;;;;;;;2.83;2.70;;;13.70;99.90;;;;;;512886;232;28438;-79
2023/05/08 00:30:15;;;;;;;3.10;2.90;;;13.70;99.90;;;;;;512859;232;28522;-79
2023/05/08 00:32:17;;;;;;;2.60;2.50;;;13.80;99.90;;;;;;512861;232;28598;-80
2023/05/08 00:34:18;;;;;;;3.00;2.80;;;13.80;99.90;;;;;;512869;232;28446;-79
2023/05/08 00:38:35;;;;;;;3.20;3.00;;;13.70;99.90;;;;;;473509;250;28837;-79
2023/05/08 00:40:36;;;;;;;3.27;3.07;;;13.70;99.90;;;;;;473480;248;28858;-80
2023/05/08 00:42:38;;;;;;;3.53;3.27;;;13.70;99.90;;;;;;473526;248;28910;-79
2023/05/08 00:44:40;;;;;;;3.03;2.80;;;13.60;99.90;;;;;;473467;248;28489;-80
2023/05/08 00:46:41;;;;;;;2.60;2.50;;;13.60;99.90;;;;;;473482;249;28551;-80
2023/05/08 00:48:42;;;;;;;3.30;3.00;;;13.60;99.90;;;;;;473473;248;28886;-80
2023/05/08 00:50:45;;;;;;;2.90;2.70;;;13.70;99.90;;;;;;473508;248;28691;-79
2023/05/08 00:52:46;;;;;;;3.43;3.23;;;13.60;99.90;;;;;;473582;248;28886;-80
2023/05/08 00:54:47;;;;;;;4.23;2.90;;;13.60;99.90;;;;;;473449;249;28895;-80
2023/05/08 00:56:49;;;;;;;3.13;2.93;;;13.70;99.90;;;;;;473530;248;29038;-79
2023/05/08 00:58:50;;;;;;;3.13;2.93;;;13.70;99.90;;;;;;473462;248;29354;-79
2023/05/08 01:00:51;;;;;;;3.10;2.90;;;13.70;99.90;;;;;;473517;248;28926;-79
2023/05/08 01:02:52;;;;;;;3.60;3.30;;;13.70;99.90;;;;;;473436;248;28801;-79
2023/05/08 01:04:54;;;;;;;3.43;2.90;;;13.80;99.90;;;;;;473439;249;29486;-80
2023/05/08 01:06:55;;;;;;;3.73;3.43;;;13.80;99.90;;;;;;473467;249;29340;-80
2023/05/08 01:08:56;;;;;;;5.20;3.73;;;13.80;99.90;;;;;;473599;248;29380;-79
2023/05/08 01:10:57;;;;;;;3.57;3.20;;;13.80;99.90;;;;;;473438;249;28575;-80
2023/05/08 01:12:59;;;;;;;4.10;3.50;;;13.80;99.90;;;;;;473407;248;28588;-80
2023/05/08 01:15:00;;;;;;;3.87;3.57;;;13.80;99.90;;;;;;473240;249;28548;-80
2023/05/08 01:17:01;;;;;;;4.67;4.17;;;13.80;99.90;;;;;;473463;248;28548;-79
2023/05/08 01:19:03;;;;;;;5.73;4.90;;;13.80;99.90;;;;;;473443;248;28520;-80
2023/05/08 01:21:05;;;;;;;4.50;4.10;;;13.80;99.90;;;;;;473474;248;28291;-80
2023/05/08 01:23:06;;;;;;;4.57;4.17;;;13.80;99.90;;;;;;473464;248;28671;-79
2023/05/08 01:25:07;;;;;;;8.77;7.03;;;13.70;99.90;;;;;;473280;248;29369;-79
2023/05/08 01:27:08;;;;;;;5.60;5.10;;;13.60;99.90;;;;;;473513;248;29041;-79
2023/05/08 01:29:17;;;;;;;7.17;5.37;;;13.60;99.90;;;;;;473560;248;28494;-80
2023/05/08 01:31:18;;;;;;;7.87;6.40;;;13.60;99.90;;;;;;473458;249;28456;-79
2023/05/08 01:33:19;;;;;;;8.40;6.93;;;13.50;99.90;;;;;;473451;249;28484;-79
2023/05/08 01:35:29;;;;;;;7.40;5.50;;;13.40;99.90;;;;;;473420;249;29158;-80
2023/05/08 01:37:30;;;;;;;5.20;4.70;;;13.40;99.90;;;;;;473468;250;28471;-79
2023/05/08 01:39:31;;;;;;;8.47;7.20;;;13.40;99.90;;;;;;473434;249;28569;-79
2023/05/08 01:41:32;;;;;;;10.33;9.13;;;13.40;99.90;;;;;;473472;249;29313;-79
2023/05/08 01:43:34;;;;;;;10.87;8.97;;;13.30;99.90;;;;;;473471;248;29515;-79
2023/05/08 01:45:35;;;;;;;7.03;6.30;;;13.30;99.90;;;;;;473411;249;28620;-79
2023/05/08 01:47:36;;;;;;;6.50;5.90;;;13.30;99.90;;;;;;473442;249;28958;-79
2023/05/08 01:49:38;;;;;;;9.90;6.37;;;13.40;99.90;;;;;;473444;249;28583;-80
2023/05/08 01:51:40;;;;;;;6.37;5.77;;;13.50;99.90;;;;;;473466;248;28561;-79
2023/05/08 01:53:41;;;;;;;7.53;6.27;;;13.50;99.90;;;;;;473408;249;28408;-79
2023/05/08 01:55:42;;;;;;;7.70;6.10;;;13.50;99.90;;;;;;473402;249;28702;-79
2023/05/08 01:57:43;;;;;;;7.40;6.60;;;13.50;99.90;;;;;;473455;249;28911;-79
2023/05/08 01:59:45;;;;;;;7.53;6.73;;;13.50;99.90;;;;;;473451;249;29036;-79
2023/05/08 02:01:46;;;;;;;9.10;7.00;;;13.50;99.90;;;;;;473539;248;29384;-78
2023/05/08 02:03:54;;;;;;;8.63;6.40;;;13.50;99.90;;;;;;473478;248;29004;-79
2023/05/08 02:05:55;;;;;;;7.30;6.53;;;13.50;99.90;;;;;;473422;249;28522;-78
2023/05/08 02:07:57;;;;;;;5.80;5.30;;;13.50;99.90;;;;;;473458;249;28924;-79
2023/05/08 02:09:58;;;;;;;5.50;4.47;;;13.40;99.90;;;;;;473463;248;29363;-79
2023/05/08 02:11:59;;;;;;;6.10;4.67;;;13.40;99.90;;;;;;472639;251;28978;-79
2023/05/08 02:14:00;;;;;;;6.27;4.87;;;13.40;99.90;;;;;;471771;252;28858;-80
2023/05/08 02:16:02;;;;;;;5.87;4.53;;;13.30;99.90;;;;;;471710;252;28329;-79
2023/05/08 02:18:03;;;;;;;5.40;4.03;;;13.30;99.90;;;;;;471761;252;28870;-78
2023/05/08 02:20:04;;;;;;;4.77;4.37;;;13.30;99.90;;;;;;471737;252;29396;-79
2023/05/08 02:22:05;;;;;;;3.90;3.60;;;13.40;99.90;;;;;;471775;252;28917;-79
2023/05/08 02:24:07;;;;;;;3.87;3.63;;;13.40;99.90;;;;;;471743;252;28588;-79
2023/05/08 02:28:20;;;;;;;4.33;3.93;;;13.40;99.90;;;;;;484233;245;28357;-79
2023/05/08 02:30:22;;;;;;;4.90;4.50;;;13.50;99.90;;;;;;484505;245;28214;-79
2023/05/08 02:32:23;;;;;;;5.60;4.10;;;13.40;99.90;;;;;;484551;245;28486;-79
2023/05/08 02:34:24;;;;;;;4.73;4.33;;;13.40;99.90;;;;;;484575;245;28223;-79
2023/05/08 02:38:36;;;;;;;7.70;6.30;;;13.40;99.90;;;;;;488041;234;28147;-78
2023/05/08 02:40:37;;;;;;;5.67;5.07;;;13.50;99.90;;;;;;488711;242;28907;-79
2023/05/08 02:42:38;;;;;;;4.80;4.40;;;13.40;99.90;;;;;;488747;242;28834;-80
2023/05/08 02:44:39;;;;;;;6.30;5.70;;;13.40;99.90;;;;;;488735;242;28810;-79
2023/05/08 02:46:41;;;;;;;5.30;4.90;;;13.50;99.90;;;;;;488739;242;29107;-79
2023/05/08 02:48:42;;;;;;;5.30;4.80;;;13.50;99.90;;;;;;488723;242;28280;-79
2023/05/08 02:50:43;;;;;;;5.80;4.87;;;13.50;99.90;;;;;;488681;243;28419;-79
2023/05/08 02:52:45;;;;;;;5.57;5.07;;;13.50;99.90;;;;;;488696;242;28151;-79
2023/05/08 02:54:48;;;;;;;6.33;5.73;;;13.50;99.90;;;;;;488688;242;28207;-80
2023/05/08 02:56:49;;;;;;;6.50;5.33;;;13.50;99.90;;;;;;488722;241;28387;-79
2023/05/08 02:58:50;;;;;;;6.90;6.20;;;13.50;99.90;;;;;;488703;242;28367;-80
2023/05/08 03:00:52;;;;;;;8.03;6.30;;;13.50;99.90;;;;;;488682;242;28784;-80
2023/05/08 03:02:53;;;;;;;8.33;7.10;;;13.40;99.90;;;;;;488717;242;29141;-79
2023/05/08 03:04:54;;;;;;;7.87;7.07;;;13.50;99.90;;;;;;488710;242;28887;-80
2023/05/08 03:06:58;;;;;;;7.47;6.77;;;13.50;99.90;;;;;;488729;242;29109;-79
2023/05/08 03:09:00;;;;;;;7.70;6.53;;;13.50;99.90;;;;;;488705;241;29011;-79
2023/05/08 03:11:01;;;;;;;9.20;8.20;;;13.40;99.90;;;;;;488691;241;28260;-78
2023/05/08 03:13:02;;;;;;;8.53;7.30;;;13.40;99.90;;;;;;488646;242;28710;-80
2023/05/08 03:15:03;;;;;;;9.53;7.60;;;13.40;99.90;;;;;;488667;242;28404;-79
2023/05/08 03:17:05;;;;;;;8.33;7.30;;;13.40;99.90;;;;;;488708;242;28398;-79
2023/05/08 03:19:06;;;;;;;7.27;6.57;;;13.50;99.90;;;;;;488654;242;28428;-79
2023/05/08 03:21:07;;;;;;;7.03;6.40;;;13.50;99.90;;;;;;490564;238;28428;-79
2023/05/08 03:23:09;;;;;;;6.57;5.80;;;13.50;99.90;;;;;;499650;238;28524;-80
2023/05/08 03:25:13;;;;;;;6.47;5.87;;;13.50;99.90;;;;;;499648;238;28386;-79
2023/05/08 03:27:13;;;;;;;11.23;9.43;;;13.50;99.90;;;;;;499660;238;28541;-79
2023/05/08 03:29:19;;;;;;;18.30;12.27;;;13.50;99.90;;;;;;499628;238;28884;-79
2023/05/08 03:31:21;;;;;;;19.10;13.00;;;13.40;99.90;;;;;;499683;238;28500;-80
2023/05/08 03:33:22;;;;;;;13.80;11.00;;;13.30;99.90;;;;;;499640;238;29299;-79
2023/05/08 03:35:31;;;;;;;16.93;11.00;;;13.30;99.90;;;;;;499654;238;28947;-79
2023/05/08 03:37:32;;;;;;;16.33;10.87;;;13.30;99.90;;;;;;499663;238;28520;-79
2023/05/08 03:39:34;;;;;;;12.77;9.93;;;13.30;99.90;;;;;;499620;237;28990;-80
2023/05/08 03:41:35;;;;;;;14.40;10.57;;;13.30;99.90;;;;;;499687;238;28842;-79
2023/05/08 03:43:36;;;;;;;11.10;9.10;;;13.30;99.90;;;;;;499650;238;28162;-80
2023/05/08 03:45:37;;;;;;;14.93;11.57;;;13.40;99.90;;;;;;499612;238;28503;-79
2023/05/08 03:47:39;;;;;;;14.30;10.50;;;13.40;99.90;;;;;;499650;238;28486;-79
2023/05/08 03:49:40;;;;;;;16.20;12.70;;;13.40;99.90;;;;;;499570;238;28263;-79
2023/05/08 03:51:41;;;;;;;13.13;10.93;;;13.40;99.90;;;;;;499532;238;28569;-79
2023/05/08 03:53:50;;;;;;;11.80;10.30;;;13.40;99.90;;;;;;499543;238;28830;-80
2023/05/08 03:55:52;;;;;;;14.43;11.13;;;13.50;99.90;;;;;;498258;234;28510;-79
2023/05/08 03:57:53;;;;;;;12.43;10.17;;;13.50;99.90;;;;;;483527;244;29052;-80
2023/05/08 04:02:32;;;;;;;10.10;8.50;;;13.60;99.90;;;;;;479343;247;28971;-80
2023/05/08 04:04:33;;;;;;;13.60;9.50;;;13.60;99.90;;;;;;479252;247;28428;-80
2023/05/08 04:08:42;;;;;;;10.37;8.50;;;13.60;99.90;;;;;;493414;240;28364;-79
2023/05/08 04:10:43;;;;;;;15.67;9.97;;;13.60;99.90;;;;;;493309;241;28317;-79
2023/05/08 04:12:43;;;;;;;13.53;10.10;;;13.70;99.90;;;;;;493407;241;28414;-80
2023/05/08 04:14:44;;;;;;;9.70;8.70;;;13.70;99.90;;;;;;493401;241;28890;-80
2023/05/08 04:16:46;;;;;;;10.40;8.83;;;13.70;99.90;;;;;;493458;241;28539;-79
2023/05/08 04:18:47;;;;;;;12.53;9.30;;;13.70;99.90;;;;;;493460;241;28747;-80
2023/05/08 04:20:48;;;;;;;20.97;10.03;;;13.70;99.90;;;;;;493434;241;28826;-80
2023/05/08 04:22:49;;;;;;;10.47;9.30;;;13.70;99.90;;;;;;493439;241;28144;-80
2023/05/08 04:24:51;;;;;;;10.63;8.30;;;13.70;99.90;;;;;;493422;241;28320;-80
2023/05/08 04:26:53;;;;;;;10.63;8.80;;;13.70;99.90;;;;;;493447;241;28130;-80
2023/05/08 04:28:54;;;;;;;9.67;8.20;;;13.70;99.90;;;;;;493430;241;28464;-79
2023/05/08 04:30:55;;;;;;;10.27;9.00;;;13.70;99.90;;;;;;493412;241;28185;-81
2023/05/08 04:32:58;;;;;;;9.30;8.30;;;13.70;99.90;;;;;;493425;241;28970;-80
2023/05/08 04:34:58;;;;;;;7.63;6.93;;;13.80;99.90;;;;;;493369;241;29703;-80
2023/05/08 04:36:59;;;;;;;8.77;7.67;;;13.80;99.90;;;;;;493468;241;28920;-80
2023/05/08 04:39:00;;;;;;;8.87;7.00;;;13.70;99.90;;;;;;493477;241;28262;-80
2023/05/08 04:41:04;;;;;;;7.50;6.63;;;13.70;99.90;;;;;;493439;241;29281;-81
2023/05/08 04:43:05;;;;;;;8.70;7.50;;;13.80;99.90;;;;;;493466;241;28399;-80
2023/05/08 04:45:07;;;;;;;7.93;6.90;;;13.80;99.90;;;;;;493466;241;28341;-80
2023/05/08 04:47:09;;;;;;;8.40;7.53;;;13.80;99.90;;;;;;486040;236;28426;-79
2023/05/08 04:49:10;;;;;;;30.33;19.47;;;13.80;99.90;;;;;;495149;240;28379;-80
2023/05/08 04:51:11;;;;;;;33.00;18.37;;;13.80;99.90;;;;;;495146;240;28857;-80
2023/05/08 04:53:12;;;;;;;23.93;16.20;;;13.70;99.90;;;;;;495140;240;29235;-80
2023/05/08 04:55:14;;;;;;;27.73;17.93;;;13.70;99.90;;;;;;495100;240;28713;-80
2023/05/08 04:57:15;;;;;;;27.30;18.80;;;13.80;99.90;;;;;;495128;240;28446;-81
2023/05/08 04:59:16;;;;;;;30.17;19.33;;;13.80;99.90;;;;;;495157;240;28856;-79
2023/05/08 05:01:18;;;;;;;34.90;21.43;;;13.90;99.90;;;;;;495155;240;28159;-80
2023/05/08 05:03:21;;;;;;;28.47;17.97;;;13.90;99.90;;;;;;495129;240;28248;-80
2023/05/08 05:05:22;;;;;;;23.20;15.70;;;13.90;99.90;;;;;;495147;240;29012;-80
2023/05/08 05:07:23;;;;;;;15.50;11.60;;;13.90;99.90;;;;;;495142;240;28405;-80
2023/05/08 05:09:26;;;;;;;14.47;11.00;;;13.90;99.90;;;;;;495122;240;28336;-80
2023/05/08 05:11:27;;;;;;;15.53;11.60;;;13.90;99.90;;;;;;495121;240;28977;-81
2023/05/08 05:13:28;;;;;;;17.80;13.10;;;13.90;99.90;;;;;;495151;240;28442;-80
2023/05/08 05:15:30;;;;;;;19.27;12.93;;;13.90;99.90;;;;;;495141;240;28775;-76
2023/05/08 05:17:32;;;;;;;16.63;11.80;;;14.00;99.90;;;;;;495122;240;29257;-77
2023/05/08 05:19:32;;;;;;;15.43;10.93;;;13.90;99.90;;;;;;495103;240;28935;-77
2023/05/08 05:21:34;;;;;;;10.90;8.97;;;14.00;99.90;;;;;;495113;240;28277;-77
2023/05/08 05:23:36;;;;;;;11.33;8.60;;;13.90;99.90;;;;;;495098;240;28532;-77
2023/05/08 05:25:37;;;;;;;8.03;7.23;;;14.00;99.90;;;;;;495136;240;28418;-77
2023/05/08 05:27:38;;;;;;;8.10;7.30;;;13.90;99.90;;;;;;494654;239;29081;-78
2023/05/08 05:29:40;;;;;;;8.07;7.30;;;14.00;99.90;;;;;;497613;238;28941;-78
2023/05/08 05:31:44;;;;;;;9.10;7.83;;;14.00;99.90;;;;;;490730;238;28928;-78
2023/05/08 05:33:43;;;;;;;11.43;9.13;;;14.00;99.90;;;;;;492062;240;28454;-77
2023/05/08 05:35:44;;;;;;;12.73;9.07;;;14.10;99.90;;;;;;494742;240;28825;-78
2023/05/08 05:37:45;;;;;;;16.40;12.80;;;14.10;99.90;;;;;;493088;240;29269;-78
2023/05/08 05:39:46;;;;;;;20.83;14.50;;;14.20;99.90;;;;;;486369;244;29239;-78
2023/05/08 05:41:47;;;;;;;18.53;13.47;;;14.20;99.90;;;;;;486329;244;28764;-78
2023/05/08 05:43:49;;;;;;;22.87;14.80;;;14.20;99.90;;;;;;492617;240;28805;-77
2023/05/08 05:45:50;;;;;;;19.87;14.73;;;14.40;99.90;;;;;;495042;240;28760;-78
2023/05/08 05:47:52;;;;;;;20.73;13.13;;;14.40;99.90;;;;;;495088;240;28724;-78
2023/05/08 05:49:52;;;;;;;36.20;21.40;;;14.40;99.90;;;;;;493603;240;28811;-78
2023/05/08 05:51:54;;;;;;;31.77;19.23;;;14.40;99.90;;;;;;493043;240;29252;-77
2023/05/08 05:53:56;;;;;;;21.77;15.40;;;14.40;99.90;;;;;;493845;241;29975;-77
2023/05/08 05:55:57;;;;;;;29.73;18.93;;;14.50;99.90;;;;;;494173;240;28815;-78
2023/05/08 05:58:00;;;;;;;27.43;17.80;;;14.60;99.90;;;;;;494173;241;28819;-76
2023/05/08 06:00:01;;;;;;;25.17;16.97;;;14.60;99.90;;;;;;494202;240;29350;-78
2023/05/08 06:02:02;;;;;;;41.03;24.00;;;14.50;99.90;;;;;;494177;240;29326;-78
2023/05/08 06:04:04;;;;;;;34.13;20.60;;;14.40;99.90;;;;;;493152;240;28813;-80
2023/05/08 06:08:11;;;;;;;27.93;18.43;;;14.50;99.90;;;;;;475714;249;28799;-82
2023/05/08 06:10:12;;;;;;;29.93;17.83;;;14.40;99.90;;;;;;475544;250;28824;-80
2023/05/08 06:12:13;;;;;;;31.80;19.90;;;14.50;99.90;;;;;;475536;250;28797;-81
2023/05/08 06:14:15;;;;;;;33.80;19.80;;;14.70;99.90;;;;;;475468;250;28797;-81
2023/05/08 06:18:26;;;;;;;31.70;19.93;;;14.60;99.90;;;;;;489175;236;29329;-80
2023/05/08 06:20:27;;;;;;;25.97;18.00;;;14.60;99.90;;;;;;485038;244;28933;-81
2023/05/08 06:22:29;;;;;;;30.63;19.73;;;14.60;99.90;;;;;;485058;244;28734;-80
2023/05/08 06:24:30;;;;;;;20.93;15.07;;;14.70;99.90;;;;;;486021;238;28776;-80
2023/05/08 06:26:31;;;;;;;25.70;17.63;;;14.60;99.90;;;;;;494952;231;28772;-79
2023/05/08 06:28:35;;;;;;;19.43;14.00;;;14.80;99.90;;;;;;500195;237;28835;-79
2023/05/08 06:30:34;;;;;;;18.37;13.90;;;15.00;99.90;;;;;;499306;236;30077;-78
2023/05/08 06:32:37;;;;;;;24.03;17.70;;;15.10;99.90;;;;;;498817;238;28865;-77
2023/05/08 06:34:38;;;;;;;16.50;13.43;;;15.20;99.90;;;;;;498707;238;28923;-82
2023/05/08 06:38:50;;;;;;;19.60;15.13;;;15.30;99.90;;;;;;491324;236;29004;-82
2023/05/08 06:40:52;;;;;;;21.63;16.60;;;15.20;99.90;;;;;;493445;241;28822;-80
2023/05/08 06:42:52;;;;;;;21.00;15.40;;;15.00;99.90;;;;;;493553;241;28871;-80
2023/05/08 06:44:54;;;;;;;24.73;17.00;;;15.00;99.90;;;;;;493502;241;28723;-82
2023/05/08 06:46:55;;;;;;;27.37;18.00;;;15.00;99.90;;;;;;488879;232;28901;-80
2023/05/08 06:48:56;;;;;;;20.70;14.63;;;15.00;99.90;;;;;;480548;246;29399;-81
2023/05/08 06:50:57;;;;;;;17.43;15.00;;;15.20;99.90;;;;;;480641;246;29215;-83
2023/05/08 06:52:59;;;;;;;17.50;13.93;;;15.40;99.90;;;;;;480695;246;28977;-83
2023/05/08 06:55:00;;;;;;;18.70;14.07;;;15.50;99.90;;;;;;480630;246;28751;-84
2023/05/08 06:57:02;;;;;;;16.90;13.17;;;15.60;99.90;;;;;;488313;231;28837;-82
2023/05/08 06:59:03;;;;;;;21.80;15.20;;;15.50;99.90;;;;;;491497;242;28936;-81
2023/05/08 07:01:04;;;;;;;21.40;16.57;;;15.50;99.90;;;;;;491364;242;28820;-80
2023/05/08 07:03:05;;;;;;;23.90;17.67;;;15.60;99.90;;;;;;491350;242;28925;-82
2023/05/08 07:05:07;;;;;;;20.70;17.60;;;15.80;99.90;;;;;;491226;242;29302;-80
2023/05/08 07:07:08;;;;;;;20.57;15.33;;;16.00;99.90;;;;;;485790;231;29459;-79
2023/05/08 07:09:10;;;;;;;17.23;14.63;;;16.10;99.90;;;;;;482182;246;28878;-80
2023/05/08 07:11:10;;;;;;;20.37;15.03;;;16.30;99.90;;;;;;482192;246;28844;-81
2023/05/08 07:13:12;;;;;;;19.03;15.23;;;16.40;99.90;;;;;;482276;245;28866;-82
2023/05/08 07:15:13;;;;;;;16.00;12.70;;;16.60;99.90;;;;;;482145;244;28894;-82
2023/05/08 07:17:14;;;;;;;19.17;14.37;;;16.50;99.90;;;;;;484996;231;28921;-82
2023/05/08 07:19:16;;;;;;;22.43;18.03;;;16.60;99.90;;;;;;483667;246;29363;-81
2023/05/08 07:21:19;;;;;;;17.50;13.50;;;16.70;99.90;;;;;;483616;246;29264;-79
2023/05/08 07:23:18;;;;;;;40.10;29.97;;;16.60;99.90;;;;;;483490;246;28918;-80
2023/05/08 07:25:19;;;;;;;30.60;22.57;;;16.40;99.90;;;;;;483569;246;28752;-78
2023/05/08 07:27:20;;;;;;;20.60;16.30;;;16.30;99.90;;;;;;483693;242;28780;-83
2023/05/08 07:29:22;;;;;;;18.07;14.60;;;16.30;99.90;;;;;;483985;243;29160;-84
2023/05/08 07:31:23;;;;;;;17.60;13.70;;;16.00;99.90;;;;;;483792;246;28751;-82
2023/05/08 07:33:24;;;;;;;19.77;14.80;;;16.00;99.90;;;;;;483426;246;29243;-81
2023/05/08 07:35:25;;;;;;;18.43;13.63;;;15.80;99.90;;;;;;478348;248;29299;-79
2023/05/08 07:37:28;;;;;;;20.63;15.17;;;15.80;99.90;;;;;;492077;230;28830;-80
2023/05/08 07:39:28;;;;;;;16.70;12.77;;;15.90;99.90;;;;;;490296;241;28916;-81
2023/05/08 07:41:29;;;;;;;15.63;12.53;;;15.90;99.90;;;;;;490314;240;28876;-78
2023/05/08 07:43:30;;;;;;;17.87;12.70;;;16.00;99.90;;;;;;487750;241;28866;-79
2023/05/08 07:47:52;;;;;;;15.43;11.70;;;15.70;99.90;;;;;;474363;248;29420;-82
2023/05/08 07:50:01;;;;;;;11.07;9.90;;;15.90;99.90;;;;;;477357;249;29349;-83
2023/05/08 07:52:02;;;;;;;12.70;10.23;;;16.00;99.90;;;;;;477598;249;28889;-84
2023/05/08 07:54:03;;;;;;;14.47;12.67;;;16.00;99.90;;;;;;482910;244;29313;-81
2023/05/08 07:56:04;;;;;;;13.93;11.23;;;16.10;99.90;;;;;;485642;229;28837;-81
2023/05/08 07:58:06;;;;;;;14.13;12.07;;;16.10;99.90;;;;;;476471;236;29093;-80
2023/05/08 08:00:07;;;;;;;14.13;11.73;;;16.10;99.90;;;;;;478336;244;29388;-79
2023/05/08 08:02:08;;;;;;;14.40;11.03;;;16.10;99.90;;;;;;478196;244;29348;-80
2023/05/08 08:04:09;;;;;;;13.10;10.17;;;16.00;99.90;;;;;;478221;249;28798;-79
2023/05/08 08:06:11;;;;;;;17.40;12.30;;;16.00;99.90;;;;;;479481;244;28870;-80
2023/05/08 08:08:12;;;;;;;12.33;10.30;;;16.00;99.90;;;;;;483995;241;29318;-79
2023/05/08 08:10:13;;;;;;;13.30;10.13;;;16.10;99.90;;;;;;478215;241;28917;-80
2023/05/08 08:12:14;;;;;;;12.40;9.90;;;16.10;99.90;;;;;;478111;244;28907;-80
2023/05/08 08:14:17;;;;;;;13.43;10.47;;;16.10;99.90;;;;;;477979;240;28951;-80
2023/05/08 08:16:18;;;;;;;16.03;11.13;;;16.10;99.90;;;;;;480067;231;28842;-80
2023/05/08 08:18:19;;;;;;;10.63;9.13;;;16.10;99.90;;;;;;484985;231;29744;-83
2023/05/08 08:20:21;;;;;;;13.70;11.60;;;16.00;99.90;;;;;;484679;231;31020;-82
2023/05/08 08:22:22;;;;;;;16.43;11.40;;;16.00;99.90;;;;;;484530;231;28855;-83
2023/05/08 08:24:23;;;;;;;14.63;11.90;;;16.00;99.90;;;;;;484626;231;28923;-84
2023/05/08 08:26:24;;;;;;;15.33;11.93;;;16.00;99.90;;;;;;484691;241;28859;-84
2023/05/08 08:28:25;;;;;;;23.10;12.17;;;16.00;99.90;;;;;;484875;231;28909;-81
2023/05/08 08:30:27;;;;;;;12.10;10.30;;;15.90;99.90;;;;;;484779;231;28963;-85
2023/05/08 08:32:28;;;;;;;15.70;11.10;;;15.80;99.90;;;;;;484605;231;28960;-84
2023/05/08 08:34:29;;;;;;;12.33;9.80;;;15.60;99.90;;;;;;484877;231;29712;-84
2023/05/08 08:36:31;;;;;;;13.53;11.20;;;15.50;99.90;;;;;;481694;231;28984;-83
2023/05/08 08:38:32;;;;;;;11.03;9.10;;;15.20;99.90;;;;;;476592;236;29063;-84
2023/05/08 08:40:33;;;;;;;9.80;8.80;;;15.30;99.90;;;;;;476305;236;28979;-85
2023/05/08 08:42:34;;;;;;;12.23;9.10;;;15.50;99.90;;;;;;476479;236;28974;-84
2023/05/08 08:44:36;;;;;;;11.60;8.57;;;15.60;99.90;;;;;;476802;236;28914;-84
2023/05/08 08:46:37;;;;;;;24.60;12.73;;;15.70;99.90;;;;;;477592;233;28954;-83
2023/05/08 08:48:38;;;;;;;22.20;15.77;;;15.60;99.90;;;;;;477628;240;29637;-84
2023/05/08 08:50:39;;;;;;;26.13;18.40;;;15.30;99.90;;;;;;476676;238;29557;-83
2023/05/08 08:52:41;;;;;;;28.10;17.10;;;14.90;99.90;;;;;;475839;241;29026;-84
2023/05/08 08:54:42;;;;;;;31.33;20.30;;;14.90;99.90;;;;;;475788;236;28992;-85
2023/05/08 08:56:43;;;;;;;42.60;20.27;;;14.90;99.90;;;;;;475845;236;29900;-84
2023/05/08 08:58:45;;;;;;;34.73;21.60;;;14.70;99.90;;;;;;475853;236;28971;-84
2023/05/08 09:00:46;;;;;;;29.40;20.50;;;14.60;99.90;;;;;;475661;236;28865;-85
2023/05/08 09:02:47;;;;;;;34.40;21.10;;;14.80;99.90;;;;;;475616;239;29692;-82
2023/05/08 09:04:48;;;;;;;27.43;18.40;;;14.90;99.90;;;;;;475623;239;28914;-83
2023/05/08 09:06:49;;;;;;;23.80;15.83;;;15.00;99.90;;;;;;475816;236;29275;-84
2023/05/08 09:08:51;;;;;;;28.10;16.40;;;15.30;99.90;;;;;;475898;236;28927;-83
2023/05/08 09:10:52;;;;;;;23.70;16.40;;;15.20;99.90;;;;;;475737;245;28943;-83
2023/05/08 09:12:53;;;;;;;21.23;15.57;;;15.30;99.90;;;;;;475765;245;28965;-83
2023/05/08 09:14:54;;;;;;;18.70;14.80;;;15.40;99.90;;;;;;475896;243;28927;-84
2023/05/08 09:16:56;;;;;;;25.23;16.73;;;15.50;99.90;;;;;;475788;236;29732;-83
2023/05/08 09:18:57;;;;;;;16.53;13.23;;;15.50;99.90;;;;;;475998;236;29559;-82
2023/05/08 09:21:00;;;;;;;19.80;14.80;;;15.50;99.90;;;;;;477012;235;29135;-84
2023/05/08 09:23:00;;;;;;;25.10;17.13;;;15.40;99.90;;;;;;477668;236;29363;-82
2023/05/08 09:25:02;;;;;;;18.37;13.80;;;15.40;99.90;;;;;;477834;244;28953;-84
2023/05/08 09:27:04;;;;;;;27.70;18.90;;;15.50;99.90;;;;;;477628;244;28895;-84
2023/05/08 09:29:03;;;;;;;28.70;20.25;;;15.50;99.90;;;;;;474193;236;48250;-84
2023/05/08 09:31:05;;;;;;;27.30;19.40;;;15.00;99.90;;;;;;477823;236;28371;-84
2023/05/08 09:33:06;;;;;;;24.70;17.40;;;15.00;99.90;;;;;;477766;236;29294;-85
2023/05/08 09:35:07;;;;;;;25.60;17.80;;;15.10;99.90;;;;;;477821;241;28916;-83
2023/05/08 09:37:08;;;;;;;26.97;18.47;;;15.10;99.90;;;;;;477763;235;29000;-83
2023/05/08 09:39:11;;;;;;;23.30;16.70;;;15.40;99.90;;;;;;477843;244;28888;-83
2023/05/08 09:41:11;;;;;;;19.87;15.13;;;15.50;99.90;;;;;;477821;240;28899;-84
2023/05/08 09:43:15;;;;;;;23.53;17.60;;;15.70;99.90;;;;;;477833;235;29139;-83
2023/05/08 09:45:16;;;;;;;23.53;17.17;;;15.60;99.90;;;;;;477776;236;28908;-84
2023/05/08 09:47:18;;;;;;;21.63;16.10;;;15.70;99.90;;;;;;477863;236;28965;-84
2023/05/08 09:49:19;;;;;;;21.60;14.80;;;15.70;99.90;;;;;;477721;244;28955;-84
2023/05/08 09:51:20;;;;;;;21.37;15.47;;;15.60;99.90;;;;;;477741;235;29592;-84
2023/05/08 09:53:21;;;;;;;21.70;16.23;;;15.70;99.90;;;;;;477856;244;29293;-83
2023/05/08 09:55:23;;;;;;;20.60;16.13;;;15.80;99.90;;;;;;477886;235;28954;-84
2023/05/08 09:57:24;;;;;;;16.00;13.40;;;15.90;99.90;;;;;;477879;236;28957;-84
2023/05/08 09:59:28;;;;;;;22.53;16.53;;;16.10;99.90;;;;;;476077;245;29026;-84
2023/05/08 10:01:29;;;;;;;22.70;17.93;;;15.90;99.90;;;;;;475880;236;28959;-83
2023/05/08 10:03:31;;;;;;;24.90;18.00;;;15.80;99.90;;;;;;476063;236;29691;-84
2023/05/08 10:05:33;;;;;;;21.50;14.70;;;15.50;99.90;;;;;;475794;237;29302;-82
2023/05/08 10:07:33;;;;;;;18.20;14.57;;;15.80;99.90;;;;;;476119;237;28962;-84
2023/05/08 10:09:34;;;;;;;19.97;15.60;;;16.00;99.90;;;;;;475863;241;28911;-83
2023/05/08 10:11:36;;;;;;;19.93;15.80;;;16.00;99.90;;;;;;476012;237;28957;-84
2023/05/08 10:13:37;;;;;;;21.37;15.83;;;15.90;99.90;;;;;;475890;237;28911;-84
2023/05/08 10:15:38;;;;;;;21.40;16.20;;;15.90;99.90;;;;;;475820;236;29104;-84
2023/05/08 10:17:39;;;;;;;22.97;15.97;;;16.10;99.90;;;;;;475958;237;28921;-84
2023/05/08 10:19:41;;;;;;;20.67;14.47;;;16.10;99.90;;;;;;475988;236;28903;-83
2023/05/08 10:21:43;;;;;;;20.10;16.40;;;15.80;99.90;;;;;;476013;237;28934;-85
2023/05/08 10:23:43;;;;;;;21.43;16.10;;;15.90;99.90;;;;;;475861;237;28907;-84
2023/05/08 10:25:44;;;;;;;21.67;16.80;;;15.90;99.90;;;;;;476012;236;28927;-83
2023/05/08 10:27:46;;;;;;;23.80;16.97;;;15.80;99.90;;;;;;476037;236;29013;-83
2023/05/08 10:29:47;;;;;;;15.77;12.80;;;15.80;99.90;;;;;;475979;237;29630;-85
2023/05/08 10:31:48;;;;;;;23.87;17.10;;;16.10;99.90;;;;;;478241;237;29674;-83
2023/05/08 10:33:50;;;;;;;23.73;16.50;;;16.10;99.90;;;;;;481793;242;28854;-83
2023/05/08 10:35:51;;;;;;;17.30;13.73;;;16.00;99.90;;;;;;481503;242;28915;-83
2023/05/08 10:37:52;;;;;;;21.00;16.30;;;16.00;99.90;;;;;;481615;242;29232;-82
2023/05/08 10:39:53;;;;;;;18.03;14.13;;;15.70;99.90;;;;;;481538;242;28999;-82
2023/05/08 10:41:54;;;;;;;17.43;14.40;;;15.70;99.90;;;;;;481584;241;28891;-83
2023/05/08 10:43:56;;;;;;;15.50;13.00;;;15.70;99.90;;;;;;481575;242;29677;-82